createdAt,value
2018-05-01T00:01:47.699Z,8.90
2018-05-01T00:04:15.146Z,9.00
2018-05-01T00:06:42.613Z,8.90
2018-05-01T00:09:10.041Z,8.90
2018-05-01T00:11:37.510Z,8.90
2018-05-01T00:14:05.086Z,8.90
2018-05-01T00:16:32.520Z,8.90
2018-05-01T00:19:00.023Z,8.90
2018-05-01T00:21:28.230Z,9.00
2018-05-01T00:23:56.398Z,8.90
2018-05-01T00:26:23.865Z,9.00
2018-05-01T00:28:51.353Z,8.80
2018-05-01T00:31:18.814Z,8.90
2018-05-01T00:33:46.275Z,8.90
2018-05-01T00:36:13.741Z,8.90
2018-05-01T00:38:41.959Z,8.90
2018-05-01T00:41:09.519Z,8.80
2018-05-01T00:43:36.954Z,8.90
2018-05-01T00:46:04.413Z,8.90
2018-05-01T00:48:31.863Z,8.90
2018-05-01T00:51:00.070Z,8.80
2018-05-01T00:53:27.517Z,8.80
2018-05-01T00:55:55.035Z,8.80
2018-05-01T00:58:22.474Z,8.90
2018-05-01T01:00:49.938Z,8.90
2018-05-01T01:03:17.510Z,8.90
2018-05-01T01:05:45.734Z,8.80
2018-05-01T01:08:13.205Z,8.80
2018-05-01T01:10:40.689Z,8.80
2018-05-01T01:13:08.124Z,8.80
2018-05-01T01:15:35.654Z,8.80
2018-05-01T01:18:03.149Z,8.90
2018-05-01T01:20:30.616Z,9.00
2018-05-01T01:22:58.177Z,8.90
2018-05-01T01:25:25.627Z,8.80
2018-05-01T01:27:53.105Z,8.90
2018-05-01T01:30:21.379Z,8.90
2018-05-01T01:32:52.333Z,8.90
2018-05-01T01:35:20.062Z,8.80
2018-05-01T01:37:47.047Z,8.80
2018-05-01T01:40:14.040Z,8.90
2018-05-01T01:42:40.990Z,8.80
2018-05-01T01:45:08.070Z,8.80
2018-05-01T01:47:35.808Z,8.90
2018-05-01T01:50:02.863Z,8.90
2018-05-01T01:52:29.963Z,8.90
2018-05-01T01:54:56.940Z,8.90
2018-05-01T01:57:23.919Z,8.90
2018-05-01T01:59:51.747Z,8.80
2018-05-01T02:02:18.708Z,8.80
2018-05-01T02:04:45.767Z,8.70
2018-05-01T02:07:12.808Z,8.80
2018-05-01T02:09:39.775Z,8.80
2018-05-01T02:12:07.491Z,8.80
2018-05-01T02:14:34.454Z,8.80
2018-05-01T02:17:01.480Z,8.80
2018-05-01T02:19:28.539Z,8.70
2018-05-01T02:21:55.597Z,8.70
2018-05-01T02:24:22.556Z,8.70
2018-05-01T02:26:50.387Z,8.70
2018-05-01T02:29:17.472Z,8.70
2018-05-01T02:31:45.204Z,8.60
2018-05-01T02:34:12.250Z,8.60
2018-05-01T02:36:39.196Z,8.60
2018-05-01T02:39:06.166Z,8.70
2018-05-01T02:41:34.145Z,8.70
2018-05-01T02:44:01.871Z,8.70
2018-05-01T02:46:28.827Z,8.60
2018-05-01T02:48:55.863Z,8.60
2018-05-01T02:51:22.932Z,8.60
2018-05-01T02:53:49.878Z,8.60
2018-05-01T02:56:16.871Z,8.60
2018-05-01T02:58:43.826Z,8.70
2018-05-01T03:01:10.803Z,8.70
2018-05-01T03:03:37.760Z,8.60
2018-05-01T03:06:04.808Z,8.50
2018-05-01T03:08:31.824Z,8.60
2018-05-01T03:10:58.871Z,8.60
2018-05-01T03:13:25.828Z,8.60
2018-05-01T03:15:52.834Z,8.50
2018-05-01T03:18:19.808Z,8.60
2018-05-01T03:20:46.859Z,8.60
2018-05-01T03:23:13.927Z,8.40
2018-05-01T03:25:40.902Z,8.50
2018-05-01T03:28:08.659Z,8.50
2018-05-01T03:30:36.403Z,8.40
2018-05-01T03:33:03.432Z,8.40
2018-05-01T03:35:30.463Z,8.40
2018-05-01T03:37:57.423Z,8.40
2018-05-01T03:40:24.490Z,8.40
2018-05-01T03:42:51.521Z,8.40
2018-05-01T03:45:18.475Z,8.40
2018-05-01T03:47:45.507Z,8.30
2018-05-01T03:50:12.570Z,8.30
2018-05-01T03:52:39.521Z,8.30
2018-05-01T03:55:06.520Z,8.30
2018-05-01T03:57:33.477Z,8.30
2018-05-01T04:00:00.444Z,8.30
2018-05-01T04:02:27.485Z,8.30
2018-05-01T04:04:54.455Z,8.30
2018-05-01T04:07:21.421Z,8.40
2018-05-01T04:09:49.150Z,8.40
2018-05-01T04:12:16.181Z,8.30
2018-05-01T04:14:43.181Z,8.30
2018-05-01T04:17:10.152Z,8.30
2018-05-01T04:19:37.134Z,8.20
2018-05-01T04:22:04.090Z,8.20
2018-05-01T04:24:31.835Z,8.30
2018-05-01T04:26:58.781Z,8.20
2018-05-01T04:29:25.731Z,8.20
2018-05-01T04:31:52.794Z,8.20
2018-05-01T04:34:19.727Z,8.30
2018-05-01T04:36:46.681Z,8.30
2018-05-01T04:39:13.704Z,8.40
2018-05-01T04:41:40.766Z,8.40
2018-05-01T04:44:07.786Z,8.50
2018-05-01T04:46:34.743Z,8.40
2018-05-01T04:49:01.812Z,8.30
2018-05-01T04:51:28.762Z,8.40
2018-05-01T04:53:56.498Z,8.40
2018-05-01T04:56:23.545Z,8.30
2018-05-01T04:58:50.495Z,8.40
2018-05-01T05:01:17.448Z,8.40
2018-05-01T05:03:44.396Z,8.50
2018-05-01T05:06:11.373Z,8.50
2018-05-01T05:08:38.316Z,8.60
2018-05-01T05:11:05.335Z,8.60
2018-05-01T05:13:33.808Z,8.70
2018-05-01T05:16:00.780Z,8.70
2018-05-01T05:18:28.501Z,8.70
2018-05-01T05:20:55.483Z,8.70
2018-05-01T05:23:23.204Z,8.70
2018-05-01T05:25:50.176Z,8.70
2018-05-01T05:28:17.168Z,8.70
2018-05-01T05:30:44.129Z,8.70
2018-05-01T05:33:11.087Z,8.70
2018-05-01T05:35:38.048Z,8.70
2018-05-01T05:38:05.108Z,8.80
2018-05-01T05:40:32.092Z,8.60
2018-05-01T05:42:59.060Z,8.60
2018-05-01T05:45:26.041Z,8.70
2018-05-01T05:47:53.001Z,8.70
2018-05-01T05:50:20.740Z,8.70
2018-05-01T05:52:47.779Z,8.70
2018-05-01T05:55:14.825Z,8.80
2018-05-01T05:57:41.800Z,8.90
2018-05-01T06:00:09.504Z,8.90
2018-05-01T06:02:36.572Z,8.90
2018-05-01T06:05:03.535Z,9.00
2018-05-01T06:07:30.566Z,9.00
2018-05-01T06:09:57.536Z,9.00
2018-05-01T06:12:24.479Z,9.00
2018-05-01T06:14:51.463Z,9.00
2018-05-01T06:17:18.439Z,9.10
2018-05-01T06:19:46.270Z,9.10
2018-05-01T06:22:13.242Z,9.10
2018-05-01T06:24:40.196Z,9.10
2018-05-01T06:27:07.160Z,9.20
2018-05-01T06:29:34.133Z,9.20
2018-05-01T06:32:01.977Z,9.30
2018-05-01T06:34:29.003Z,9.20
2018-05-01T06:36:56.129Z,9.10
2018-05-01T06:39:23.989Z,9.10
2018-05-01T06:41:50.956Z,9.10
2018-05-01T06:44:17.893Z,9.10
2018-05-01T06:46:44.892Z,9.10
2018-05-01T06:49:12.607Z,9.40
2018-05-01T06:51:39.588Z,9.40
2018-05-01T06:54:06.542Z,9.60
2018-05-01T06:56:34.285Z,9.80
2018-05-01T06:59:01.275Z,9.70
2018-05-01T07:01:28.250Z,9.80
2018-05-01T07:03:55.194Z,10.00
2018-05-01T07:06:22.162Z,10.10
2018-05-01T07:08:49.112Z,10.20
2018-05-01T07:11:16.090Z,10.40
2018-05-01T07:13:43.818Z,11.10
2018-05-01T07:16:10.780Z,11.00
2018-05-01T07:18:38.543Z,11.20
2018-05-01T07:21:05.498Z,11.20
2018-05-01T07:23:33.244Z,11.50
2018-05-01T07:26:00.246Z,11.50
2018-05-01T07:28:27.212Z,11.40
2018-05-01T07:30:54.171Z,11.90
2018-05-01T07:33:21.142Z,12.30
2018-05-01T07:35:48.897Z,12.70
2018-05-01T07:38:15.882Z,12.70
2018-05-01T07:40:42.824Z,12.90
2018-05-01T07:43:09.828Z,13.10
2018-05-01T07:45:36.803Z,13.10
2018-05-01T07:48:03.777Z,13.10
2018-05-01T07:50:30.746Z,13.20
2018-05-01T07:52:57.718Z,13.30
2018-05-01T07:55:25.450Z,13.70
2018-05-01T07:57:52.421Z,13.70
2018-05-01T08:00:19.425Z,13.50
2018-05-01T08:02:46.396Z,13.10
2018-05-01T08:05:13.375Z,13.20
2018-05-01T08:07:41.123Z,13.50
2018-05-01T08:10:08.099Z,13.50
2018-05-01T08:12:35.079Z,14.30
2018-05-01T08:15:02.097Z,14.20
2018-05-01T08:17:29.050Z,14.30
2018-05-01T08:19:56.074Z,14.90
2018-05-01T08:22:23.941Z,15.70
2018-05-01T08:24:50.948Z,15.60
2018-05-01T08:27:17.899Z,16.20
2018-05-01T08:29:44.863Z,16.70
2018-05-01T08:32:12.607Z,18.10
2018-05-01T08:34:39.563Z,18.10
2018-05-01T08:37:06.544Z,18.20
2018-05-01T08:39:33.506Z,17.40
2018-05-01T08:42:00.473Z,18.10
2018-05-01T08:44:27.443Z,17.70
2018-05-01T08:46:54.421Z,17.50
2018-05-01T08:49:21.376Z,18.50
2018-05-01T08:51:48.358Z,19.40
2018-05-01T08:54:15.343Z,19.90
2018-05-01T08:56:43.067Z,19.70
2018-05-01T08:59:10.046Z,19.60
2018-05-01T09:01:37.775Z,18.70
2018-05-01T09:04:04.985Z,18.70
2018-05-01T09:06:31.937Z,19.80
2018-05-01T09:08:58.920Z,19.30
2018-05-01T09:11:25.929Z,18.80
2018-05-01T09:13:52.907Z,19.20
2018-05-01T09:16:19.909Z,20.20
2018-05-01T09:18:46.896Z,20.30
2018-05-01T09:21:13.860Z,20.30
2018-05-01T09:23:40.843Z,19.50
2018-05-01T09:26:08.051Z,19.10
2018-05-01T09:28:35.825Z,20.00
2018-05-01T09:31:02.804Z,19.90
2018-05-01T09:33:29.794Z,20.60
2018-05-01T09:35:56.744Z,19.00
2018-05-01T09:38:23.742Z,18.30
2018-05-01T09:40:50.736Z,19.60
2018-05-01T09:43:17.719Z,20.20
2018-05-01T09:45:45.444Z,20.50
2018-05-01T09:48:12.406Z,20.50
2018-05-01T09:50:39.368Z,19.00
2018-05-01T09:53:07.599Z,20.10
2018-05-01T09:55:35.073Z,20.00
2018-05-01T09:58:02.621Z,18.80
2018-05-01T10:00:30.090Z,19.00
2018-05-01T10:02:57.566Z,18.00
2018-05-01T10:05:25.791Z,17.50
2018-05-01T10:07:53.268Z,17.50
2018-05-01T10:10:20.729Z,16.70
2018-05-01T10:12:48.212Z,16.30
2018-05-01T10:15:15.662Z,16.20
2018-05-01T10:17:43.163Z,15.80
2018-05-01T10:20:10.603Z,15.90
2018-05-01T10:22:38.076Z,14.90
2018-05-01T10:25:05.527Z,14.80
2018-05-01T10:27:32.985Z,14.90
2018-05-01T10:30:00.462Z,15.20
2018-05-01T10:32:27.929Z,14.60
2018-05-01T10:34:55.403Z,14.90
2018-05-01T10:37:22.896Z,14.80
2018-05-01T10:39:51.122Z,14.70
2018-05-01T10:42:18.577Z,14.60
2018-05-01T10:44:46.035Z,14.60
2018-05-01T10:47:13.504Z,14.40
2018-05-01T10:49:40.967Z,14.50
2018-05-01T10:52:08.450Z,14.50
2018-05-01T10:54:36.705Z,14.30
2018-05-01T10:57:04.634Z,14.30
2018-05-01T10:59:32.109Z,14.00
2018-05-01T11:01:59.568Z,13.80
2018-05-01T11:04:27.038Z,13.90
2018-05-01T11:06:54.488Z,16.10
2018-05-01T11:09:21.941Z,17.30
2018-05-01T11:11:49.429Z,16.80
2018-05-01T11:14:16.841Z,16.30
2018-05-01T11:16:44.374Z,16.10
2018-05-01T11:19:11.835Z,15.40
2018-05-01T11:21:39.321Z,15.10
2018-05-01T11:24:06.794Z,15.00
2018-05-01T11:26:34.255Z,14.70
2018-05-01T11:29:01.699Z,14.50
2018-05-01T11:31:29.167Z,14.70
2018-05-01T11:33:56.641Z,14.60
2018-05-01T11:36:24.886Z,14.50
2018-05-01T11:38:52.361Z,14.50
2018-05-01T11:41:19.799Z,14.30
2018-05-01T11:43:47.286Z,14.40
2018-05-01T11:46:15.519Z,14.00
2018-05-01T11:48:42.986Z,14.00
2018-05-01T11:51:10.502Z,14.10
2018-05-01T11:53:37.938Z,14.20
2018-05-01T11:56:06.155Z,14.40
2018-05-01T11:58:33.628Z,14.30
2018-05-01T12:01:01.108Z,14.80
2018-05-01T12:03:28.577Z,15.00
2018-05-01T12:05:56.775Z,15.50
2018-05-01T12:08:24.222Z,15.50
2018-05-01T12:10:51.686Z,15.70
2018-05-01T12:13:19.126Z,15.60
2018-05-01T12:15:47.363Z,16.00
2018-05-01T12:18:14.868Z,16.00
2018-05-01T12:20:43.072Z,17.90
2018-05-01T12:23:10.519Z,17.80
2018-05-01T12:25:37.974Z,17.50
2018-05-01T12:28:05.792Z,18.20
2018-05-01T12:30:34.056Z,16.70
2018-05-01T12:33:01.639Z,16.70
2018-05-01T12:35:29.137Z,16.20
2018-05-01T12:37:56.637Z,16.80
2018-05-01T12:40:24.167Z,17.30
2018-05-01T12:42:52.413Z,17.00
2018-05-01T12:45:19.849Z,17.00
2018-05-01T12:47:48.100Z,19.50
2018-05-01T12:50:15.566Z,19.50
2018-05-01T12:52:43.043Z,21.10
2018-05-01T12:55:11.274Z,19.20
2018-05-01T12:57:38.725Z,19.20
2018-05-01T13:00:06.180Z,20.40
2018-05-01T13:02:33.884Z,21.40
2018-05-01T13:05:01.572Z,21.50
2018-05-01T13:07:29.088Z,21.00
2018-05-01T13:09:56.520Z,22.20
2018-05-01T13:12:24.076Z,21.90
2018-05-01T13:14:51.511Z,21.80
2018-05-01T13:17:18.954Z,22.70
2018-05-01T13:19:46.457Z,22.10
2018-05-01T13:22:13.963Z,21.30
2018-05-01T13:24:41.416Z,20.20
2018-05-01T13:27:09.656Z,19.00
2018-05-01T13:29:37.116Z,18.90
2018-05-01T13:32:04.562Z,19.40
2018-05-01T13:34:32.019Z,19.60
2018-05-01T13:36:59.493Z,20.20
2018-05-01T13:39:27.125Z,19.20
2018-05-01T13:41:54.633Z,18.30
2018-05-01T13:44:22.100Z,17.80
2018-05-01T13:46:49.600Z,17.60
2018-05-01T13:49:17.089Z,17.30
2018-05-01T13:51:44.570Z,17.50
2018-05-01T13:54:12.860Z,17.50
2018-05-01T13:56:40.375Z,17.40
2018-05-01T13:59:07.841Z,17.40
2018-05-01T14:01:35.286Z,17.20
2018-05-01T14:04:02.804Z,17.20
2018-05-01T14:06:30.448Z,17.00
2018-05-01T14:08:57.804Z,17.40
2018-05-01T14:11:25.357Z,17.70
2018-05-01T14:13:52.906Z,17.80
2018-05-01T14:16:20.496Z,17.30
2018-05-01T14:18:47.987Z,17.00
2018-05-01T14:21:15.533Z,17.70
2018-05-01T14:23:43.093Z,18.40
2018-05-01T14:26:11.439Z,17.90
2018-05-01T14:28:38.998Z,17.90
2018-05-01T14:31:06.545Z,17.60
2018-05-01T14:33:34.082Z,17.30
2018-05-01T14:36:01.595Z,17.30
2018-05-01T14:38:29.158Z,17.40
2018-05-01T14:40:56.713Z,17.30
2018-05-01T14:43:24.233Z,17.10
2018-05-01T14:45:52.527Z,17.10
2018-05-01T14:48:20.103Z,17.10
2018-05-01T14:50:47.633Z,17.40
2018-05-01T14:53:15.089Z,17.40
2018-05-01T14:55:42.546Z,17.40
2018-05-01T14:58:09.998Z,17.30
2018-05-01T15:00:37.464Z,17.20
2018-05-01T15:03:04.941Z,16.80
2018-05-01T15:05:32.411Z,16.60
2018-05-01T15:07:59.890Z,16.80
2018-05-01T15:10:27.338Z,17.10
2018-05-01T15:12:54.811Z,16.90
2018-05-01T15:15:22.260Z,17.10
2018-05-01T15:17:49.740Z,17.40
2018-05-01T15:20:17.958Z,17.30
2018-05-01T15:22:45.423Z,17.30
2018-05-01T15:25:12.903Z,17.40
2018-05-01T15:27:40.348Z,17.00
2018-05-01T15:30:07.818Z,16.90
2018-05-01T15:32:35.247Z,16.80
2018-05-01T15:35:02.706Z,16.90
2018-05-01T15:37:30.173Z,16.90
2018-05-01T15:39:57.608Z,16.90
2018-05-01T15:42:25.076Z,16.80
2018-05-01T15:44:52.661Z,16.90
2018-05-01T15:47:20.162Z,16.90
2018-05-01T15:49:47.603Z,16.90
2018-05-01T15:52:15.938Z,16.60
2018-05-01T15:54:43.409Z,16.60
2018-05-01T15:57:10.944Z,16.50
2018-05-01T15:59:38.443Z,16.50
2018-05-01T16:02:05.879Z,16.40
2018-05-01T16:04:33.330Z,16.40
2018-05-01T16:07:00.811Z,16.50
2018-05-01T16:09:28.307Z,16.60
2018-05-01T16:11:55.752Z,16.70
2018-05-01T16:14:23.258Z,16.80
2018-05-01T16:16:50.687Z,16.90
2018-05-01T16:19:18.143Z,17.20
2018-05-01T16:21:45.619Z,17.00
2018-05-01T16:24:13.079Z,16.80
2018-05-01T16:26:40.531Z,16.80
2018-05-01T16:29:07.975Z,16.80
2018-05-01T16:31:35.424Z,16.70
2018-05-01T16:34:02.951Z,16.40
2018-05-01T16:36:31.199Z,16.00
2018-05-01T16:38:58.664Z,16.00
2018-05-01T16:41:26.919Z,15.80
2018-05-01T16:43:54.375Z,15.70
2018-05-01T16:46:21.847Z,15.60
2018-05-01T16:48:49.320Z,15.50
2018-05-01T16:51:17.561Z,15.40
2018-05-01T16:53:45.051Z,15.40
2018-05-01T16:56:13.291Z,15.40
2018-05-01T16:58:40.804Z,15.40
2018-05-01T17:01:08.307Z,15.40
2018-05-01T17:03:35.759Z,15.50
2018-05-01T17:06:03.261Z,15.50
2018-05-01T17:08:31.491Z,15.70
2018-05-01T17:10:58.926Z,15.60
2018-05-01T17:13:26.402Z,15.80
2018-05-01T17:15:53.878Z,15.80
2018-05-01T17:18:21.352Z,15.80
2018-05-01T17:20:48.816Z,15.80
2018-05-01T17:23:17.059Z,15.60
2018-05-01T17:25:44.499Z,15.60
2018-05-01T17:28:12.053Z,15.50
2018-05-01T17:30:39.491Z,15.50
2018-05-01T17:33:06.953Z,15.50
2018-05-01T17:35:34.440Z,15.50
2018-05-01T17:38:01.886Z,15.60
2018-05-01T17:40:29.381Z,15.70
2018-05-01T17:42:56.855Z,15.70
2018-05-01T17:45:24.312Z,15.60
2018-05-01T17:47:52.555Z,15.50
2018-05-01T17:50:20.065Z,15.40
2018-05-01T17:52:47.538Z,15.30
2018-05-01T17:55:15.016Z,15.30
2018-05-01T17:57:43.242Z,15.20
2018-05-01T18:00:11.470Z,15.30
2018-05-01T18:02:38.999Z,15.30
2018-05-01T18:05:06.462Z,15.30
2018-05-01T18:07:33.926Z,15.20
2018-05-01T18:10:01.435Z,15.10
2018-05-01T18:12:28.922Z,15.10
2018-05-01T18:14:56.364Z,15.00
2018-05-01T18:17:23.806Z,15.10
2018-05-01T18:19:52.045Z,14.80
2018-05-01T18:22:19.509Z,14.80
2018-05-01T18:24:47.021Z,14.70
2018-05-01T18:27:14.501Z,14.50
2018-05-01T18:29:41.979Z,14.40
2018-05-01T18:32:09.446Z,14.30
2018-05-01T18:34:36.913Z,14.10
2018-05-01T18:37:04.403Z,14.10
2018-05-01T18:39:31.911Z,13.90
2018-05-01T18:41:59.363Z,13.90
2018-05-01T18:44:26.884Z,13.80
2018-05-01T18:46:55.527Z,13.60
2018-05-01T18:49:22.987Z,13.60
2018-05-01T18:51:50.444Z,13.50
2018-05-01T18:54:17.887Z,13.50
2018-05-01T18:56:45.351Z,13.30
2018-05-01T18:59:12.823Z,13.10
2018-05-01T19:01:41.030Z,13.10
2018-05-01T19:04:08.518Z,13.10
2018-05-01T19:06:35.986Z,13.00
2018-05-01T19:09:03.455Z,13.00
2018-05-01T19:11:30.928Z,12.90
2018-05-01T19:13:59.162Z,12.70
2018-05-01T19:16:27.379Z,12.60
2018-05-01T19:18:55.592Z,12.60
2018-05-01T19:21:23.048Z,12.60
2018-05-01T19:23:50.493Z,12.60
2018-05-01T19:26:17.997Z,12.50
2018-05-01T19:28:45.458Z,12.30
2018-05-01T19:31:12.936Z,12.20
2018-05-01T19:33:41.172Z,12.20
2018-05-01T19:36:08.636Z,12.20
2018-05-01T19:38:36.084Z,12.20
2018-05-01T19:41:03.641Z,12.10
2018-05-01T19:43:31.128Z,12.10
2018-05-01T19:45:58.633Z,12.00
2018-05-01T19:48:26.109Z,12.00
2018-05-01T19:50:53.685Z,11.90
2018-05-01T19:53:21.063Z,11.80
2018-05-01T19:55:49.273Z,11.60
2018-05-01T19:58:16.735Z,11.60
2018-05-01T20:00:44.185Z,11.70
2018-05-01T20:03:11.695Z,11.60
2018-05-01T20:05:39.085Z,11.50
2018-05-01T20:08:06.535Z,11.50
2018-05-01T20:10:34.777Z,11.40
2018-05-01T20:13:02.228Z,11.40
2018-05-01T20:15:29.701Z,11.30
2018-05-01T20:17:57.163Z,11.30
2018-05-01T20:20:24.647Z,11.10
2018-05-01T20:22:52.084Z,11.10
2018-05-01T20:25:20.368Z,11.20
2018-05-01T20:27:48.571Z,11.10
2018-05-01T20:30:16.100Z,11.10
2018-05-01T20:32:43.535Z,11.00
2018-05-01T20:35:10.991Z,10.90
2018-05-01T20:37:38.461Z,10.80
2018-05-01T20:40:06.671Z,10.60
2018-05-01T20:42:34.151Z,10.60
2018-05-01T20:45:01.632Z,10.60
2018-05-01T20:47:29.519Z,10.60
2018-05-01T20:49:57.735Z,10.50
2018-05-01T20:52:25.185Z,10.50
2018-05-01T20:54:52.651Z,10.40
2018-05-01T20:57:20.115Z,10.40
2018-05-01T20:59:47.596Z,10.50
2018-05-01T21:02:15.065Z,10.60
2018-05-01T21:04:42.530Z,10.70
2018-05-01T21:07:09.971Z,10.80
2018-05-01T21:09:37.426Z,10.80
2018-05-01T21:12:04.894Z,10.70
2018-05-01T21:14:32.338Z,10.80
2018-05-01T21:16:59.843Z,10.80
2018-05-01T21:19:27.448Z,10.80
2018-05-01T21:21:54.923Z,10.80
2018-05-01T21:24:22.510Z,10.80
2018-05-01T21:26:50.038Z,10.70
2018-05-01T21:29:17.545Z,10.70
2018-05-01T21:31:44.980Z,10.60
2018-05-01T21:34:13.212Z,10.40
2018-05-01T21:36:40.659Z,10.40
2018-05-01T21:39:08.129Z,10.40
2018-05-01T21:41:35.601Z,10.40
2018-05-01T21:44:03.044Z,10.40
2018-05-01T21:46:30.489Z,10.40
2018-05-01T21:48:57.964Z,10.40
2018-05-01T21:51:25.400Z,10.40
2018-05-01T21:53:52.873Z,10.30
2018-05-01T21:56:20.375Z,10.20
2018-05-01T21:58:47.809Z,10.30
2018-05-01T22:01:16.046Z,10.30
2018-05-01T22:03:43.491Z,10.30
2018-05-01T22:06:10.943Z,10.10
2018-05-01T22:08:38.393Z,10.20
2018-05-01T22:11:05.830Z,10.10
2018-05-01T22:13:33.326Z,10.10
2018-05-01T22:16:00.786Z,10.10
2018-05-01T22:18:28.249Z,10.00
2018-05-01T22:20:55.729Z,10.00
2018-05-01T22:23:23.219Z,10.00
2018-05-01T22:25:50.695Z,9.90
2018-05-01T22:28:18.159Z,9.80
2018-05-01T22:30:45.607Z,9.90
2018-05-01T22:33:13.072Z,9.90
2018-05-01T22:35:40.531Z,9.80
2018-05-01T22:38:07.978Z,9.80
2018-05-01T22:40:35.492Z,9.90
2018-05-01T22:43:02.889Z,9.70
2018-05-01T22:45:30.351Z,9.80
2018-05-01T22:47:57.819Z,9.80
2018-05-01T22:50:25.288Z,9.90
2018-05-01T22:52:52.755Z,9.90
2018-05-01T22:55:20.216Z,9.80
2018-05-01T22:57:47.728Z,9.80
2018-05-01T23:00:15.980Z,9.80
2018-05-01T23:02:44.203Z,9.70
2018-05-01T23:05:11.647Z,9.60
2018-05-01T23:07:39.097Z,9.60
2018-05-01T23:10:06.562Z,9.60
2018-05-01T23:12:34.022Z,9.60
2018-05-01T23:15:01.465Z,9.40
2018-05-01T23:17:28.943Z,9.40
2018-05-01T23:19:56.385Z,9.50
2018-05-01T23:22:23.860Z,9.50
2018-05-01T23:24:52.092Z,9.40
2018-05-01T23:27:19.562Z,9.30
2018-05-01T23:29:46.999Z,9.20
2018-05-01T23:32:14.442Z,9.20
2018-05-01T23:34:42.840Z,9.10
2018-05-01T23:37:10.302Z,9.10
2018-05-01T23:39:37.735Z,9.00
2018-05-01T23:42:05.950Z,8.90
2018-05-01T23:44:33.503Z,8.90
2018-05-01T23:47:00.942Z,9.00
2018-05-01T23:49:28.442Z,8.90
2018-05-01T23:51:55.938Z,8.80
2018-05-01T23:54:24.160Z,8.80
2018-05-01T23:56:51.643Z,8.80
2018-05-01T23:59:19.109Z,8.80
